Terminal Aerodrome Forecast
Issued by NWS

Home | Current Version | Previous Version | Text Only | Print | Product List | Glossary On
Versions: 1 2 3 4 5 6 7 8 9 10 11 12 13 14 15 16 17 18 19 20 21 22 23 24 25 26
000
FTUS44 KFWD 251510 AAB
TAFAFW
TAF AMD
KAFW 251510Z 2515/2612 15010KT P6SM SCT015 BKN200
      TEMPO 2515/2517 BKN015
     FM251700 15011KT P6SM SCT030 BKN060=

USA.gov is the U.S. government's official web portal to all federal, state and local government web resources and services.